Time;durP1;ratioP1;P1;durP2;ratioP2;P2;SDS_P1;SDS_P2;PMS_P1;PMS_P2;Temp;Humidity;BMP_temperature;BMP_pressure;BME280_temperature;BME280_humidity;BME280_pressure;Samples;Min_cycle;Max_cycle;Signal;HPM_P1;HPM_P2
2021/07/30 00:02:13;;;;;;;3.47;0.90;;;;;;;18.19;60.56;99382.09;5173477;27;20407;-54
2021/07/30 00:04:39;;;;;;;2.03;0.80;;;;;;;18.18;60.52;99380.47;5169983;27;20026;-55
2021/07/30 00:07:05;;;;;;;1.63;0.77;;;;;;;18.20;60.60;99378.38;5166220;27;20440;-54
2021/07/30 00:09:30;;;;;;;3.30;1.00;;;;;;;18.19;60.60;99378.59;5124693;27;20035;-53
2021/07/30 00:11:56;;;;;;;1.80;0.80;;;;;;;18.20;60.37;99369.56;5135898;27;20035;-54
2021/07/30 00:14:22;;;;;;;1.88;0.88;;;;;;;18.19;60.51;99371.41;5136863;27;20035;-54
2021/07/30 00:16:48;;;;;;;3.28;1.10;;;;;;;18.20;60.57;99364.22;5130834;27;20035;-54
2021/07/30 00:19:13;;;;;;;3.30;0.88;;;;;;;18.20;60.46;99366.88;5134791;27;20027;-54
2021/07/30 00:21:39;;;;;;;3.60;0.85;;;;;;;18.21;60.67;99365.81;5170560;27;20038;-54
2021/07/30 00:24:05;;;;;;;2.10;1.00;;;;;;;18.18;60.73;99368.94;5174486;27;20034;-55
2021/07/30 00:26:30;;;;;;;2.05;0.80;;;;;;;18.19;60.74;99362.56;5150805;27;20061;-54
2021/07/30 00:28:59;;;;;;;1.83;0.60;;;;;;;18.18;60.70;99361.75;5134589;27;20479;-54
2021/07/30 00:31:25;;;;;;;5.03;1.35;;;;;;;18.18;60.82;99368.94;5132690;27;20110;-54
2021/07/30 00:33:50;;;;;;;2.08;0.90;;;;;;;18.19;60.82;99368.72;5155762;27;20034;-55
2021/07/30 00:36:16;;;;;;;2.38;1.00;;;;;;;18.17;60.98;99362.78;5145473;27;20027;-54
2021/07/30 00:38:42;;;;;;;1.33;0.75;;;;;;;18.18;60.80;99359.06;5146362;27;20480;-54
2021/07/30 00:41:07;;;;;;;2.33;1.05;;;;;;;18.18;60.87;99356.41;5153310;27;20042;-54
2021/07/30 00:43:33;;;;;;;3.20;1.00;;;;;;;18.18;60.90;99360.94;5140757;27;20027;-54
2021/07/30 00:45:59;;;;;;;3.00;1.20;;;;;;;18.16;60.97;99361.16;5136924;27;20079;-54
2021/07/30 00:48:26;;;;;;;2.28;0.90;;;;;;;18.17;61.09;99359.31;5141602;27;20083;-54
2021/07/30 00:50:52;;;;;;;2.35;1.27;;;;;;;18.16;61.07;99358.47;5153578;27;20512;-54
2021/07/30 00:53:19;;;;;;;2.22;1.02;;;;;;;18.15;61.03;99351.50;5125065;27;20118;-54
2021/07/30 00:55:47;;;;;;;2.92;1.10;;;;;;;18.17;61.12;99361.97;5153150;27;20125;-55
2021/07/30 00:58:14;;;;;;;2.90;1.30;;;;;;;18.16;61.20;99365.66;5153030;27;20038;-55
2021/07/30 01:00:41;;;;;;;1.45;0.95;;;;;;;18.16;61.21;99360.31;5132877;27;20432;-56
2021/07/30 01:03:08;;;;;;;3.67;1.10;;;;;;;18.16;61.31;99347.78;5132274;27;20031;-54
2021/07/30 01:05:34;;;;;;;1.73;0.93;;;;;;;18.16;61.14;99358.47;5149081;27;20035;-54
2021/07/30 01:08:01;;;;;;;2.88;1.00;;;;;;;18.15;61.26;99358.69;5133614;27;20040;-54
2021/07/30 01:10:27;;;;;;;3.70;1.25;;;;;;;18.14;61.19;99351.72;5134258;27;20090;-54
2021/07/30 01:12:54;;;;;;;2.72;0.90;;;;;;;18.15;61.30;99361.38;5134528;27;20471;-54
2021/07/30 01:15:20;;;;;;;1.40;0.80;;;;;;;18.13;61.47;99355.41;5153005;27;20031;-54
2021/07/30 01:17:46;;;;;;;3.90;1.17;;;;;;;18.13;61.60;99363.44;5132135;27;20503;-54
2021/07/30 01:20:15;;;;;;;2.63;0.90;;;;;;;18.13;61.52;99355.41;5132131;27;20043;-54
2021/07/30 01:22:54;;;;;;;5.28;1.20;;;;;;;18.12;61.80;99365.31;5131877;27;20031;-54
2021/07/30 01:25:21;;;;;;;2.85;0.93;;;;;;;18.12;61.67;99365.31;5132303;27;20047;-54
2021/07/30 01:27:52;;;;;;;3.28;1.33;;;;;;;18.12;61.64;99364.47;5170668;27;20041;-54
2021/07/30 01:30:21;;;;;;;3.60;1.50;;;;;;;18.10;61.84;99357.47;5173630;27;20034;-55
2021/07/30 01:32:48;;;;;;;2.90;1.17;;;;;;;18.10;61.70;99370.03;5164450;27;20036;-54
2021/07/30 01:35:14;;;;;;;2.67;1.05;;;;;;;18.11;61.58;99368.97;5131970;28;20485;-54
2021/07/30 01:37:40;;;;;;;3.13;1.08;;;;;;;18.10;61.62;99364.69;5132126;28;20054;-54
2021/07/30 01:40:07;;;;;;;3.25;1.30;;;;;;;18.09;61.83;99361.19;5143070;27;20033;-55
2021/07/30 01:42:32;;;;;;;2.15;1.17;;;;;;;18.11;61.70;99368.97;5131960;28;20027;-54
2021/07/30 01:44:59;;;;;;;3.13;1.08;;;;;;;18.10;61.80;99370.03;5131959;28;20530;-54
2021/07/30 01:47:27;;;;;;;3.63;1.30;;;;;;;18.08;61.94;99364.06;5132292;28;20039;-54
2021/07/30 01:49:53;;;;;;;1.98;0.90;;;;;;;18.08;61.84;99369.41;5132041;28;20092;-54
2021/07/30 01:52:19;;;;;;;2.53;0.75;;;;;;;18.06;61.78;99366.97;5113612;28;20044;-54
2021/07/30 01:54:45;;;;;;;1.98;0.85;;;;;;;18.07;61.99;99363.28;5131992;27;20042;-55
2021/07/30 01:57:11;;;;;;;2.75;0.82;;;;;;;18.06;62.06;99358.94;5160479;27;20031;-55
2021/07/30 01:59:40;;;;;;;2.90;0.98;;;;;;;18.07;61.96;99365.94;5154961;27;20048;-55
2021/07/30 02:02:06;;;;;;;2.17;0.80;;;;;;;18.07;62.30;99362.44;5173322;27;20026;-55
2021/07/30 02:04:32;;;;;;;3.83;0.90;;;;;;;18.07;62.34;99362.44;5148617;27;20029;-55
2021/07/30 02:06:58;;;;;;;3.88;1.20;;;;;;;18.06;62.51;99356.28;5152568;27;20023;-55
2021/07/30 02:09:24;;;;;;;3.50;1.05;;;;;;;18.05;62.33;99357.31;5152930;27;20034;-55
2021/07/30 02:11:51;;;;;;;3.13;1.30;;;;;;;18.05;62.54;99356.50;5152251;27;20488;-55
2021/07/30 02:14:24;;;;;;;3.70;0.80;;;;;;;18.06;62.55;99356.28;5168717;27;20034;-55
2021/07/30 02:16:53;;;;;;;3.92;0.90;;;;;;;18.05;62.51;99356.50;5174082;27;20101;-55
2021/07/30 02:19:20;;;;;;;3.63;0.80;;;;;;;18.06;62.35;99352.81;5172828;27;20396;-55
2021/07/30 02:21:47;;;;;;;2.92;0.90;;;;;;;18.06;62.51;99356.28;5177127;27;20543;-55
2021/07/30 02:24:12;;;;;;;2.13;1.10;;;;;;;18.05;62.72;99353.81;5158602;27;20121;-55
2021/07/30 02:26:38;;;;;;;1.92;0.70;;;;;;;18.04;62.78;99357.53;5141325;27;20030;-55
2021/07/30 02:29:04;;;;;;;2.45;0.90;;;;;;;18.03;62.97;99356.72;5177116;27;20491;-55
2021/07/30 02:31:30;;;;;;;4.03;0.80;;;;;;;18.03;62.99;99361.25;5159315;27;20077;-55
2021/07/30 02:33:56;;;;;;;1.83;0.75;;;;;;;18.03;62.97;99348.69;5156044;27;20080;-55
2021/07/30 02:36:22;;;;;;;1.55;0.93;;;;;;;18.06;62.80;99358.16;5137526;27;20035;-55
2021/07/30 02:38:48;;;;;;;3.47;0.93;;;;;;;18.03;62.91;99351.38;5155916;27;20109;-55
2021/07/30 02:41:16;;;;;;;5.70;1.20;;;;;;;18.03;62.99;99353.25;5137510;27;20485;-55
2021/07/30 02:43:43;;;;;;;2.88;1.13;;;;;;;18.04;63.03;99354.88;5155886;27;20504;-55
2021/07/30 02:46:09;;;;;;;3.05;1.20;;;;;;;18.03;63.23;99347.91;5155801;27;20030;-55
2021/07/30 02:48:36;;;;;;;2.90;1.30;;;;;;;17.99;63.11;99350.19;5155728;27;20035;-55
2021/07/30 02:51:02;;;;;;;2.28;1.10;;;;;;;18.00;62.99;99351.00;5155764;27;20030;-55
2021/07/30 02:53:28;;;;;;;2.00;1.42;;;;;;;17.98;62.98;99349.34;5155496;27;20094;-55
2021/07/30 02:55:54;;;;;;;2.13;1.40;;;;;;;18.01;63.17;99356.13;5156708;27;20030;-55
2021/07/30 02:58:20;;;;;;;3.72;1.95;;;;;;;18.00;63.11;99351.81;5166890;27;20026;-55
2021/07/30 03:00:45;;;;;;;2.35;1.42;;;;;;;18.00;62.92;99357.16;5167179;27;20030;-55
2021/07/30 03:03:11;;;;;;;2.38;1.65;;;;;;;18.00;63.20;99356.34;5155518;27;20031;-55
2021/07/30 03:05:38;;;;;;;2.17;1.25;;;;;;;18.01;62.90;99355.31;5169753;27;20031;-55
2021/07/30 03:08:04;;;;;;;4.75;1.30;;;;;;;18.01;63.13;99352.63;5157663;27;20458;-60
2021/07/30 03:10:30;;;;;;;2.95;1.70;;;;;;;18.00;63.08;99356.34;5176128;27;20030;-55
2021/07/30 03:12:55;;;;;;;2.60;1.77;;;;;;;17.98;63.16;99354.69;5172633;27;20106;-55
2021/07/30 03:15:21;;;;;;;5.63;2.10;;;;;;;17.99;63.18;99347.50;5155617;27;20057;-55
2021/07/30 03:17:47;;;;;;;2.75;1.30;;;;;;;17.97;63.11;99354.94;5155471;27;20113;-55
2021/07/30 03:20:13;;;;;;;3.45;1.42;;;;;;;17.95;63.03;99349.78;5155510;27;20038;-55
2021/07/30 03:22:38;;;;;;;2.65;1.70;;;;;;;17.94;63.25;99350.84;5155027;27;20388;-55
2021/07/30 03:25:05;;;;;;;2.88;1.60;;;;;;;17.95;63.04;99355.16;5155309;27;20039;-55
2021/07/30 03:27:30;;;;;;;2.00;1.30;;;;;;;17.93;63.14;99354.53;5155306;27;20381;-55
2021/07/30 03:29:56;;;;;;;1.95;1.48;;;;;;;17.94;63.37;99355.38;5157621;27;20026;-55
2021/07/30 03:32:22;;;;;;;5.30;1.73;;;;;;;17.94;63.17;99358.03;5175029;27;20045;-55
2021/07/30 03:34:48;;;;;;;3.75;1.27;;;;;;;17.96;63.12;99364.00;5175722;27;20030;-55
2021/07/30 03:37:14;;;;;;;1.77;1.33;;;;;;;17.96;62.96;99361.31;5175673;27;20030;-54
2021/07/30 03:39:40;;;;;;;4.68;1.50;;;;;;;17.95;63.07;99360.50;5175582;27;20034;-55
2021/07/30 03:42:06;;;;;;;3.35;1.23;;;;;;;17.96;63.01;99361.31;5175642;27;20244;-55
2021/07/30 03:44:32;;;;;;;3.63;1.13;;;;;;;17.94;63.22;99369.56;5175551;27;20476;-55
2021/07/30 03:46:58;;;;;;;3.47;1.27;;;;;;;17.95;62.96;99368.50;5175470;27;20034;-55
2021/07/30 03:49:24;;;;;;;1.98;1.10;;;;;;;17.93;63.12;99367.91;5175607;27;20030;-55
2021/07/30 03:51:50;;;;;;;1.38;1.15;;;;;;;17.92;63.23;99373.47;5175109;27;20087;-55
2021/07/30 03:54:17;;;;;;;1.17;1.08;;;;;;;17.90;63.17;99373.69;5175308;27;20077;-55
2021/07/30 03:56:43;;;;;;;4.45;1.42;;;;;;;17.89;63.07;99372.06;5144422;27;20498;-55
2021/07/30 03:59:09;;;;;;;2.13;1.05;;;;;;;17.88;63.23;99375.78;5145272;27;20027;-54
2021/07/30 04:01:35;;;;;;;2.13;1.17;;;;;;;17.85;63.42;99373.56;5142751;27;20062;-55
2021/07/30 04:04:01;;;;;;;2.15;1.10;;;;;;;17.85;63.17;99371.69;5145849;27;20035;-55
2021/07/30 04:06:27;;;;;;;1.50;0.95;;;;;;;17.84;63.25;99371.91;5124263;27;20038;-54
2021/07/30 04:08:52;;;;;;;3.42;1.30;;;;;;;17.84;63.33;99371.91;5144370;27;20114;-54
2021/07/30 04:11:19;;;;;;;1.65;0.90;;;;;;;17.82;63.15;99366.78;5124516;27;20385;-54
2021/07/30 04:13:46;;;;;;;2.50;1.00;;;;;;;17.84;63.22;99374.56;5142644;27;20066;-55
2021/07/30 04:16:12;;;;;;;0.98;0.80;;;;;;;17.83;63.28;99370.28;5144788;27;20033;-55
2021/07/30 04:18:39;;;;;;;3.42;1.30;;;;;;;17.82;63.15;99369.44;5142905;27;20540;-54
2021/07/30 04:21:06;;;;;;;2.40;1.17;;;;;;;17.78;63.44;99370.94;5142566;27;20050;-54
2021/07/30 04:23:32;;;;;;;2.95;1.52;;;;;;;17.78;63.53;99373.59;5119568;27;20397;-54
2021/07/30 04:25:58;;;;;;;1.67;0.80;;;;;;;17.80;63.28;99378.72;5114606;27;20032;-55
2021/07/30 04:28:24;;;;;;;2.65;1.20;;;;;;;17.79;63.17;99377.91;5114681;27;20046;-54
2021/07/30 04:30:50;;;;;;;1.90;1.30;;;;;;;17.80;63.40;99384.06;5133057;27;20485;-54
2021/07/30 04:33:16;;;;;;;1.95;1.05;;;;;;;17.78;63.48;99381.63;5132998;27;20504;-54
2021/07/30 04:35:42;;;;;;;1.70;1.58;;;;;;;17.75;63.44;99382.06;5132843;27;20266;-54
2021/07/30 04:38:07;;;;;;;2.25;1.20;;;;;;;17.71;63.66;99379.00;5132941;27;20044;-54
2021/07/30 04:40:35;;;;;;;1.58;1.33;;;;;;;17.73;63.55;99384.94;5132621;27;20031;-54
2021/07/30 04:43:01;;;;;;;1.75;1.17;;;;;;;17.72;63.63;99380.66;5132713;27;20038;-54
2021/07/30 04:45:27;;;;;;;2.55;1.10;;;;;;;17.74;63.42;99377.75;5132921;27;20035;-54
2021/07/30 04:47:52;;;;;;;1.55;1.25;;;;;;;17.76;63.37;99382.88;5114470;27;20031;-54
2021/07/30 04:50:18;;;;;;;1.90;1.33;;;;;;;17.75;63.55;99381.22;5132677;27;20092;-54
2021/07/30 04:52:44;;;;;;;2.58;1.25;;;;;;;17.75;63.60;99383.91;5132711;27;20405;-54
2021/07/30 04:55:10;;;;;;;1.48;1.27;;;;;;;17.76;63.44;99388.22;5132585;27;20046;-54
2021/07/30 04:57:36;;;;;;;3.35;1.60;;;;;;;17.69;63.76;99389.09;5132595;27;20126;-55
2021/07/30 05:00:02;;;;;;;1.55;1.15;;;;;;;17.71;63.79;99389.69;5132636;27;20035;-54
2021/07/30 05:02:28;;;;;;;1.85;1.33;;;;;;;17.71;63.66;99389.69;5132498;27;20046;-55
2021/07/30 05:04:55;;;;;;;2.90;1.35;;;;;;;17.73;63.48;99397.47;5152686;27;20030;-54
2021/07/30 05:07:24;;;;;;;1.30;1.23;;;;;;;17.75;63.76;99391.91;5174126;27;20062;-54
2021/07/30 05:09:50;;;;;;;1.88;1.40;;;;;;;17.70;63.85;99398.75;5174060;27;20036;-55
2021/07/30 05:12:16;;;;;;;2.22;1.25;;;;;;;17.63;64.18;99395.28;5173776;27;20105;-54
2021/07/30 05:14:42;;;;;;;1.92;1.40;;;;;;;17.66;64.20;99399.41;5173844;27;20184;-55
2021/07/30 05:17:07;;;;;;;2.60;1.33;;;;;;;17.66;63.92;99400.19;5155917;27;20543;-54
2021/07/30 05:19:33;;;;;;;1.85;1.20;;;;;;;17.68;64.17;99402.66;5174061;27;20035;-54
2021/07/30 05:21:59;;;;;;;1.85;1.27;;;;;;;17.69;63.93;99401.63;5174025;27;20046;-54
2021/07/30 05:24:24;;;;;;;1.98;1.15;;;;;;;17.70;64.04;99400.59;5173876;27;20499;-55
2021/07/30 05:26:50;;;;;;;1.10;1.00;;;;;;;17.65;64.02;99406.59;5174085;27;20045;-55
2021/07/30 05:29:16;;;;;;;1.75;0.98;;;;;;;17.65;64.07;99411.94;5173724;27;20038;-54
2021/07/30 05:31:41;;;;;;;2.78;1.42;;;;;;;17.60;64.45;99420.59;5173716;27;20042;-54
2021/07/30 05:34:07;;;;;;;1.65;1.15;;;;;;;17.61;64.37;99421.44;5173594;27;20030;-54
2021/07/30 05:36:33;;;;;;;1.98;1.10;;;;;;;17.60;64.40;99431.28;5173675;27;20570;-54
2021/07/30 05:38:58;;;;;;;1.60;1.13;;;;;;;17.64;64.43;99430.84;5173750;27;20472;-54
2021/07/30 05:41:24;;;;;;;2.28;1.23;;;;;;;17.65;64.21;99435.16;5173813;27;20034;-54
2021/07/30 05:43:50;;;;;;;2.72;1.52;;;;;;;17.65;64.20;99432.47;5173524;27;20507;-54
2021/07/30 05:46:19;;;;;;;1.90;1.10;;;;;;;17.65;64.42;99435.16;5155120;27;20061;-54
2021/07/30 05:48:46;;;;;;;1.63;1.02;;;;;;;17.66;64.38;99440.28;5173572;27;20117;-54
2021/07/30 05:51:13;;;;;;;1.10;1.00;;;;;;;17.68;64.07;99442.75;5173436;27;20026;-54
2021/07/30 05:53:40;;;;;;;1.42;1.00;;;;;;;17.68;64.31;99445.41;5173726;27;20095;-54
2021/07/30 05:56:05;;;;;;;2.78;1.20;;;;;;;17.66;64.39;99444.81;5170164;27;20600;-54
2021/07/30 05:58:32;;;;;;;1.20;1.10;;;;;;;17.68;64.25;99442.75;5167832;27;20079;-54
2021/07/30 06:00:58;;;;;;;2.33;1.15;;;;;;;17.66;64.56;99444.81;5168921;27;20463;-54
2021/07/30 06:03:23;;;;;;;1.70;0.90;;;;;;;17.66;64.41;99448.28;5156767;27;20035;-54
2021/07/30 06:05:49;;;;;;;3.58;1.15;;;;;;;17.67;64.41;99444.59;5170488;27;20548;-54
2021/07/30 06:08:15;;;;;;;1.70;1.15;;;;;;;17.67;64.64;99447.28;5177404;27;20089;-54
2021/07/30 06:10:41;;;;;;;3.45;0.80;;;;;;;17.67;64.49;99452.63;5177413;27;20366;-54
2021/07/30 06:13:07;;;;;;;1.23;1.13;;;;;;;17.65;64.51;99454.69;5174204;27;20027;-54
2021/07/30 06:15:33;;;;;;;4.18;1.40;;;;;;;17.67;64.47;99460.63;5156807;27;20086;-54
2021/07/30 06:18:01;;;;;;;1.25;1.10;;;;;;;17.67;64.56;99454.47;5156544;27;20442;-54
2021/07/30 06:20:27;;;;;;;3.28;1.45;;;;;;;17.67;64.41;99457.13;5120567;27;20033;-54
2021/07/30 06:22:52;;;;;;;3.90;1.20;;;;;;;17.66;64.54;99466.19;5156574;27;20038;-54
2021/07/30 06:25:19;;;;;;;2.47;1.50;;;;;;;17.62;65.04;99463.13;5156231;27;20022;-54
2021/07/30 06:27:45;;;;;;;2.58;1.25;;;;;;;17.63;64.81;99459.41;5156280;27;20079;-54
2021/07/30 06:30:12;;;;;;;1.60;1.02;;;;;;;17.65;64.81;99465.38;5159226;27;20442;-54
2021/07/30 06:32:38;;;;;;;3.00;1.08;;;;;;;17.67;64.66;99462.50;5177163;27;20444;-54
2021/07/30 06:35:05;;;;;;;3.08;1.40;;;;;;;17.63;65.15;99459.41;5158219;27;20056;-54
2021/07/30 06:37:32;;;;;;;2.20;1.10;;;;;;;17.65;64.80;99459.19;5176964;27;20035;-54
2021/07/30 06:39:59;;;;;;;1.02;0.80;;;;;;;17.61;65.32;99469.53;5177152;27;20514;-54
2021/07/30 06:42:24;;;;;;;1.60;1.00;;;;;;;17.63;65.21;99469.31;5176845;27;20030;-54
2021/07/30 06:44:50;;;;;;;1.38;0.88;;;;;;;17.61;65.38;99466.84;5145437;27;20042;-53
2021/07/30 06:47:18;;;;;;;2.63;1.08;;;;;;;17.63;65.14;99462.09;5135132;27;20031;-54
2021/07/30 06:49:44;;;;;;;1.42;0.70;;;;;;;17.64;65.33;99468.25;5135082;27;20039;-54
2021/07/30 06:52:10;;;;;;;0.88;0.80;;;;;;;17.64;65.05;99462.91;5127688;27;20032;-54
2021/07/30 06:54:37;;;;;;;0.70;0.70;;;;;;;17.64;65.25;99468.25;5114425;28;20039;-54
2021/07/30 06:57:03;;;;;;;0.63;0.57;;;;;;;17.65;65.12;99465.38;5135349;27;20504;-54
2021/07/30 06:59:29;;;;;;;1.63;0.80;;;;;;;17.64;65.34;99468.25;5152810;27;20038;-54
2021/07/30 07:01:56;;;;;;;0.73;0.60;;;;;;;17.64;65.32;99477.09;5134991;27;20035;-54
2021/07/30 07:04:22;;;;;;;1.58;0.80;;;;;;;17.63;65.23;99469.31;5139788;27;20053;-53
2021/07/30 07:06:48;;;;;;;0.50;0.50;;;;;;;17.65;65.33;99470.72;5154285;27;20039;-54
2021/07/30 07:09:15;;;;;;;1.65;0.80;;;;;;;17.66;65.27;99468.88;5155512;27;20038;-53
2021/07/30 07:11:40;;;;;;;0.95;0.60;;;;;;;17.66;65.33;99469.69;5155247;27;20090;-53
2021/07/30 07:14:06;;;;;;;1.02;0.70;;;;;;;17.63;65.68;99472.78;5138862;27;20035;-53
2021/07/30 07:16:32;;;;;;;0.57;0.57;;;;;;;17.62;65.55;99476.50;5135258;27;20042;-53
2021/07/30 07:18:57;;;;;;;1.42;0.68;;;;;;;17.63;65.77;99485.34;5134548;27;20035;-54
2021/07/30 07:21:23;;;;;;;1.17;0.60;;;;;;;17.64;65.91;99485.13;5133230;27;20043;-53
2021/07/30 07:23:50;;;;;;;1.13;0.80;;;;;;;17.66;65.43;99484.91;5133269;27;20027;-53
2021/07/30 07:26:19;;;;;;;2.35;0.80;;;;;;;17.64;65.66;99493.13;5134711;27;20432;-53
2021/07/30 07:28:45;;;;;;;0.95;0.55;;;;;;;17.60;66.26;99498.09;5133054;27;20118;-54
2021/07/30 07:31:11;;;;;;;1.40;0.60;;;;;;;17.60;66.40;99503.44;5130747;27;20035;-54
2021/07/30 07:33:37;;;;;;;1.15;0.65;;;;;;;17.56;66.87;99502.22;5113746;28;20027;-53
2021/07/30 07:36:04;;;;;;;1.80;0.80;;;;;;;17.55;66.79;99503.25;5113543;28;20122;-53
2021/07/30 07:38:30;;;;;;;2.95;0.70;;;;;;;17.55;66.84;99500.56;5112857;28;20440;-53
2021/07/30 07:40:56;;;;;;;1.75;0.80;;;;;;;17.56;66.89;99498.72;5113424;28;20037;-54
2021/07/30 07:43:21;;;;;;;3.60;0.73;;;;;;;17.54;67.17;99506.13;5113888;28;20093;-54
2021/07/30 07:45:47;;;;;;;1.30;0.63;;;;;;;17.57;67.12;99508.38;5113552;28;20509;-54
2021/07/30 07:48:13;;;;;;;2.10;1.25;;;;;;;17.54;67.10;99506.97;5113382;28;20043;-53
2021/07/30 07:50:39;;;;;;;1.80;0.65;;;;;;;17.56;67.14;99504.91;5113353;28;20434;-54
2021/07/30 07:53:15;;;;;;;1.08;0.75;;;;;;;17.52;67.41;99510.88;5128179;27;20039;-53
2021/07/30 07:55:41;;;;;;;1.10;0.60;;;;;;;17.46;67.33;99516.03;5133839;27;20118;-54
2021/07/30 07:58:07;;;;;;;2.40;0.65;;;;;;;17.43;67.83;99516.47;5134020;27;20399;-53
2021/07/30 08:00:33;;;;;;;1.73;0.70;;;;;;;17.47;67.53;99520.34;5134661;27;20155;-53
2021/07/30 08:02:58;;;;;;;2.00;0.88;;;;;;;17.47;67.23;99522.22;5165875;27;20106;-54
2021/07/30 08:05:24;;;;;;;5.50;0.80;;;;;;;17.52;67.02;99518.91;5115096;27;20478;-54
2021/07/30 08:07:50;;;;;;;1.77;0.73;;;;;;;17.53;67.03;99529.38;5133518;27;20038;-54
2021/07/30 08:10:15;;;;;;;2.10;0.90;;;;;;;17.55;66.87;99524.63;5126032;27;20038;-54
2021/07/30 08:12:41;;;;;;;5.38;1.25;;;;;;;17.53;67.32;99537.38;5154219;27;20035;-54
2021/07/30 08:15:08;;;;;;;4.53;1.30;;;;;;;17.56;66.94;99533.47;5154091;27;20377;-53
2021/07/30 08:17:35;;;;;;;3.05;0.80;;;;;;;17.51;67.28;99527.94;5132266;27;20040;-54
2021/07/30 08:20:01;;;;;;;1.55;1.02;;;;;;;17.53;67.35;99534.72;5158775;27;20035;-53
2021/07/30 08:22:26;;;;;;;1.77;0.88;;;;;;;17.54;67.23;99539.03;5155764;27;20041;-53
2021/07/30 08:24:52;;;;;;;2.53;0.80;;;;;;;17.56;67.21;99534.28;5174746;27;20399;-54
2021/07/30 08:27:18;;;;;;;5.65;0.98;;;;;;;17.59;66.97;99541.06;5164694;27;20027;-53
2021/07/30 08:29:43;;;;;;;2.97;0.85;;;;;;;17.58;66.97;99534.88;5154142;27;20457;-54
2021/07/30 08:32:09;;;;;;;2.63;1.00;;;;;;;17.53;67.26;99537.38;5161442;27;20026;-53
2021/07/30 08:34:39;;;;;;;3.47;1.00;;;;;;;17.55;67.14;99527.28;5174170;27;20036;-53
2021/07/30 08:37:06;;;;;;;8.82;1.20;;;;;;;17.55;67.21;99534.50;5153550;27;20045;-53
2021/07/30 08:39:32;;;;;;;2.97;1.30;;;;;;;17.58;66.95;99539.41;5153773;27;20430;-54
2021/07/30 08:42:00;;;;;;;3.78;0.82;;;;;;;17.61;66.88;99533.66;5149761;27;20154;-54
2021/07/30 08:44:26;;;;;;;3.60;1.00;;;;;;;17.66;66.22;99543.69;5152997;27;20034;-54
2021/07/30 08:46:52;;;;;;;6.75;1.15;;;;;;;17.64;66.67;99533.22;5151364;27;20037;-53
2021/07/30 08:49:18;;;;;;;2.67;1.17;;;;;;;17.65;67.06;99534.03;5113277;27;20050;-54
2021/07/30 08:51:49;;;;;;;2.03;1.00;;;;;;;17.65;66.99;99539.38;5131747;27;20441;-54
2021/07/30 08:54:15;;;;;;;5.30;1.27;;;;;;;17.64;67.22;99537.75;5152451;27;20102;-54
2021/07/30 08:56:41;;;;;;;2.25;1.08;;;;;;;17.63;67.01;99544.94;5157722;27;20065;-54
2021/07/30 08:59:08;;;;;;;3.83;1.23;;;;;;;17.61;67.06;99539.78;5165559;27;20019;-54
2021/07/30 09:01:35;;;;;;;2.67;1.13;;;;;;;17.63;67.08;99552.94;5157523;27;20042;-54
2021/07/30 09:04:01;;;;;;;1.98;0.95;;;;;;;17.67;66.70;99554.16;5156320;27;20075;-54
2021/07/30 09:06:28;;;;;;;2.78;1.15;;;;;;;17.67;66.83;99542.66;5152609;27;20397;-54
2021/07/30 09:08:54;;;;;;;2.88;1.13;;;;;;;17.68;66.89;99547.78;5152465;27;20469;-54
2021/07/30 09:11:34;;;;;;;5.43;1.30;;;;;;;17.68;66.76;99553.13;5152441;27;20027;-54
2021/07/30 09:14:02;;;;;;;3.03;1.40;;;;;;;17.65;67.20;99547.38;5151645;27;20056;-54
2021/07/30 09:16:28;;;;;;;6.95;1.10;;;;;;;17.67;66.97;99554.16;5153076;27;20065;-54
2021/07/30 09:18:54;;;;;;;2.65;1.25;;;;;;;17.69;67.06;99562.81;5152153;27;20030;-54
2021/07/30 09:21:30;;;;;;;6.22;1.10;;;;;;;17.70;66.95;99558.25;5152471;27;20034;-53
2021/07/30 09:24:07;;;;;;;5.85;1.38;;;;;;;17.70;67.01;99563.59;5151075;27;20094;-54
2021/07/30 09:26:32;;;;;;;1.63;1.13;;;;;;;17.68;66.95;99561.16;5145538;27;20034;-54
2021/07/30 09:29:01;;;;;;;3.70;0.80;;;;;;;17.67;66.86;99567.53;5149158;27;20125;-54
2021/07/30 09:31:39;;;;;;;11.10;1.40;;;;;;;17.65;66.98;99563.41;5138033;27;20499;-54
2021/07/30 09:34:14;;;;;;;2.10;0.98;;;;;;;17.66;67.01;99563.19;5131013;27;20076;-54
2021/07/30 09:36:42;;;;;;;1.42;1.10;;;;;;;17.68;66.61;99563.81;5142148;27;20023;-55
2021/07/30 09:39:08;;;;;;;4.38;1.15;;;;;;;17.71;66.52;99559.91;5131311;28;20182;-55
2021/07/30 09:41:33;;;;;;;1.83;0.90;;;;;;;17.68;66.77;99563.81;5131678;28;20079;-55
2021/07/30 09:44:07;;;;;;;3.90;1.35;;;;;;;17.71;66.49;99573.28;5148566;27;20030;-55
2021/07/30 09:46:34;;;;;;;2.42;0.90;;;;;;;17.71;66.66;99567.94;5152094;27;20099;-54
2021/07/30 09:49:00;;;;;;;2.70;1.00;;;;;;;17.73;66.56;99568.53;5152186;27;20034;-54
2021/07/30 09:51:27;;;;;;;3.50;1.08;;;;;;;17.69;66.42;99568.16;5151834;27;20058;-55
2021/07/30 09:53:53;;;;;;;1.63;0.80;;;;;;;17.70;66.82;99569.78;5151244;27;20394;-55
2021/07/30 09:56:22;;;;;;;3.22;1.02;;;;;;;17.72;66.67;99569.56;5150926;27;20508;-55
2021/07/30 09:58:52;;;;;;;1.20;1.00;;;;;;;17.71;66.75;99568.72;5131600;27;20039;-55
2021/07/30 10:01:18;;;;;;;3.15;0.90;;;;;;;17.72;66.91;99573.06;5131457;28;20603;-54
2021/07/30 10:03:46;;;;;;;1.10;0.90;;;;;;;17.73;66.76;99569.34;5145445;27;20114;-54
2021/07/30 10:06:15;;;;;;;1.00;0.80;;;;;;;17.76;66.64;99573.44;5172875;27;20049;-54
2021/07/30 10:08:42;;;;;;;1.67;0.77;;;;;;;17.73;66.88;99576.53;5153367;27;20036;-54
2021/07/30 10:11:11;;;;;;;3.35;1.00;;;;;;;17.74;66.83;99580.88;5131062;28;20378;-54
2021/07/30 10:13:48;;;;;;;3.88;1.20;;;;;;;17.76;66.42;99584.13;5144003;27;20114;-54
2021/07/30 10:16:15;;;;;;;2.85;0.82;;;;;;;17.79;66.57;99588.25;5152894;27;20061;-54
2021/07/30 10:18:42;;;;;;;2.38;0.90;;;;;;;17.79;66.49;99591.72;5152016;27;20611;-53
2021/07/30 10:21:17;;;;;;;2.47;0.77;;;;;;;17.79;66.68;99585.56;5152102;27;20027;-53
2021/07/30 10:23:48;;;;;;;11.15;0.80;;;;;;;17.81;66.36;99588.84;5151234;27;20113;-54
2021/07/30 10:26:16;;;;;;;3.97;1.10;;;;;;;17.83;66.21;99592.13;5152036;27;20030;-54
2021/07/30 10:28:42;;;;;;;0.90;0.70;;;;;;;17.83;66.35;99584.94;5151868;27;20058;-53
2021/07/30 10:31:10;;;;;;;2.67;1.08;;;;;;;17.84;66.24;99591.06;5151546;27;20031;-54
2021/07/30 10:33:37;;;;;;;5.15;1.10;;;;;;;17.85;66.38;99595.41;5150842;27;20027;-54
2021/07/30 10:36:12;;;;;;;1.17;0.90;;;;;;;17.83;66.48;99589.44;5151978;27;20069;-54
2021/07/30 10:38:39;;;;;;;1.63;0.93;;;;;;;17.85;66.52;99587.38;5151815;27;20122;-54
2021/07/30 10:41:05;;;;;;;1.17;0.70;;;;;;;17.87;66.35;99589.84;5154025;27;20030;-54
2021/07/30 10:43:33;;;;;;;4.22;1.10;;;;;;;17.88;66.26;99592.31;5155288;27;20126;-54
2021/07/30 10:46:08;;;;;;;4.10;0.82;;;;;;;17.88;66.34;99589.63;5146232;27;20035;-55
2021/07/30 10:48:35;;;;;;;2.38;0.80;;;;;;;17.88;66.37;99588.81;5118504;27;20039;-54
2021/07/30 10:51:04;;;;;;;3.92;0.88;;;;;;;17.89;66.41;99587.75;5146933;27;20030;-54
2021/07/30 10:53:30;;;;;;;2.10;0.90;;;;;;;17.89;66.36;99596.59;5146522;27;20041;-55
2021/07/30 10:55:59;;;;;;;1.65;0.95;;;;;;;17.91;66.30;99591.06;5142578;27;20129;-54
2021/07/30 10:58:40;;;;;;;2.65;1.10;;;;;;;17.90;66.92;99594.75;5141493;27;20027;-54
2021/07/30 11:01:08;;;;;;;2.90;1.10;;;;;;;17.89;66.90;99593.09;5137536;27;20035;-54
2021/07/30 11:03:52;;;;;;;1.02;0.70;;;;;;;17.90;66.86;99600.13;5144308;27;20033;-54
2021/07/30 11:06:36;;;;;;;1.35;0.80;;;;;;;17.91;67.10;99596.41;5125978;27;20109;-54
2021/07/30 11:09:03;;;;;;;0.98;0.65;;;;;;;17.93;66.84;99599.69;5141639;27;20129;-54
2021/07/30 11:11:55;;;;;;;4.43;1.30;;;;;;;17.94;66.93;99590.63;5142776;27;20039;-54
2021/07/30 11:14:27;;;;;;;6.70;0.95;;;;;;;17.95;66.58;99584.22;5142123;27;20491;-55
2021/07/30 11:17:05;;;;;;;1.35;0.77;;;;;;;17.94;66.76;99594.13;5142345;27;20404;-54
2021/07/30 11:19:39;;;;;;;3.17;0.80;;;;;;;17.92;67.24;99598.03;5141771;27;20035;-53
2021/07/30 11:22:11;;;;;;;1.27;0.80;;;;;;;17.90;67.56;99600.13;5142994;27;20032;-54
2021/07/30 11:24:48;;;;;;;1.50;0.80;;;;;;;17.91;67.66;99601.75;5146155;27;20034;-54
2021/07/30 11:27:19;;;;;;;1.02;0.82;;;;;;;17.92;67.53;99604.19;5143785;27;20038;-54
2021/07/30 11:29:49;;;;;;;1.75;1.00;;;;;;;17.96;67.27;99601.94;5143179;27;20054;-54
2021/07/30 11:32:16;;;;;;;1.65;0.68;;;;;;;17.97;67.29;99601.72;5142454;27;20586;-54
2021/07/30 11:34:46;;;;;;;1.75;0.70;;;;;;;17.97;67.88;99608.91;5144755;27;20441;-54